createdAt,value
2022-09-07T00:00:20.999Z,14.98
2022-09-07T00:01:54.029Z,15.55
2022-09-07T00:03:27.602Z,14.48
2022-09-07T00:05:00.896Z,16.38
2022-09-07T00:09:40.192Z,13.05
2022-09-07T00:11:16.025Z,13.52
2022-09-07T00:12:48.768Z,14.73
2022-09-07T00:14:21.946Z,17.00
2022-09-07T00:17:28.257Z,14.98
2022-09-07T00:19:04.002Z,13.43
2022-09-07T00:20:36.100Z,14.30
2022-09-07T00:22:10.466Z,14.38
2022-09-07T00:23:44.311Z,14.02
2022-09-07T00:25:17.588Z,14.63
2022-09-07T00:28:23.457Z,13.23
2022-09-07T00:29:57.213Z,14.63
2022-09-07T00:31:31.638Z,10.68
2022-09-07T00:33:03.812Z,10.77
2022-09-07T00:34:36.847Z,12.38
2022-09-07T00:36:08.991Z,13.52
2022-09-07T00:37:43.417Z,15.00
2022-09-07T00:39:16.487Z,12.52
2022-09-07T00:40:49.578Z,12.18
2022-09-07T00:42:24.968Z,12.65
2022-09-07T00:43:59.679Z,12.02
2022-09-07T00:45:33.409Z,11.52
2022-09-07T00:47:06.472Z,10.50
2022-09-07T00:48:44.188Z,10.27
2022-09-07T00:50:21.547Z,12.43
2022-09-07T00:51:58.480Z,14.23
2022-09-07T00:53:38.241Z,11.40
2022-09-07T00:55:14.407Z,10.25
2022-09-07T00:56:49.882Z,9.70
2022-09-07T00:58:24.343Z,12.25
2022-09-07T00:59:59.227Z,13.65
2022-09-07T01:01:33.551Z,14.13
2022-09-07T01:03:07.777Z,9.85
2022-09-07T01:04:41.392Z,9.60
2022-09-07T01:06:18.838Z,10.43
2022-09-07T01:07:51.509Z,10.70
2022-09-07T01:09:28.314Z,11.57
2022-09-07T01:11:01.918Z,13.07
2022-09-07T01:12:34.019Z,11.93
2022-09-07T01:14:10.061Z,11.50
2022-09-07T01:15:50.491Z,12.10
2022-09-07T01:17:32.778Z,11.98
2022-09-07T01:19:25.398Z,12.45
2022-09-07T01:21:19.463Z,11.82
2022-09-07T01:23:29.388Z,11.63
2022-09-07T01:25:10.946Z,13.55
2022-09-07T01:27:13.234Z,14.98
2022-09-07T01:28:55.028Z,13.00
2022-09-07T01:30:32.322Z,12.27
2022-09-07T01:32:12.933Z,11.80
2022-09-07T01:33:55.652Z,13.15
2022-09-07T01:35:37.901Z,13.27
2022-09-07T01:37:17.990Z,12.88
2022-09-07T01:38:55.945Z,11.98
2022-09-07T01:40:37.998Z,14.82
2022-09-07T01:42:14.034Z,13.48
2022-09-07T01:43:54.393Z,13.05
2022-09-07T01:45:31.814Z,12.38
2022-09-07T01:47:10.797Z,13.75
2022-09-07T01:48:46.169Z,13.27
2022-09-07T01:50:22.446Z,13.32
2022-09-07T01:52:02.171Z,13.45
2022-09-07T01:53:39.234Z,12.63
2022-09-07T01:55:16.916Z,12.70
2022-09-07T01:56:54.437Z,11.68
2022-09-07T01:58:31.894Z,11.90
2022-09-07T02:00:11.396Z,15.00
2022-09-07T02:01:53.352Z,16.33
2022-09-07T02:03:32.180Z,12.30
2022-09-07T02:05:10.322Z,14.77
2022-09-07T02:06:49.367Z,14.77
2022-09-07T02:08:27.473Z,11.45
2022-09-07T02:10:05.289Z,13.18
2022-09-07T02:11:41.016Z,13.65
2022-09-07T02:13:19.195Z,13.13
2022-09-07T02:14:57.350Z,12.00
2022-09-07T02:16:33.757Z,14.23
2022-09-07T02:18:09.716Z,10.23
2022-09-07T02:19:49.653Z,11.85
2022-09-07T02:21:30.122Z,11.68
2022-09-07T02:23:07.794Z,11.90
2022-09-07T02:24:45.282Z,13.30
2022-09-07T02:26:22.033Z,13.32
2022-09-07T02:27:59.110Z,10.50
2022-09-07T02:29:32.771Z,14.85
2022-09-07T02:31:06.657Z,10.27
2022-09-07T02:32:41.456Z,14.55
2022-09-07T02:34:15.437Z,12.23
2022-09-07T02:35:48.984Z,12.13
2022-09-07T02:37:22.740Z,12.27
2022-09-07T02:38:56.030Z,12.00
2022-09-07T02:42:02.460Z,14.48
2022-09-07T02:43:35.913Z,12.27
2022-09-07T02:45:12.026Z,13.40
2022-09-07T02:47:01.087Z,13.85
2022-09-07T02:48:44.321Z,12.82
2022-09-07T02:50:39.054Z,11.60
2022-09-07T02:52:22.361Z,11.85
2022-09-07T02:54:13.808Z,12.15
2022-09-07T02:55:57.003Z,15.27
2022-09-07T02:57:39.351Z,11.85
2022-09-07T02:59:25.724Z,14.80
2022-09-07T03:01:08.767Z,12.10
2022-09-07T03:02:53.059Z,10.95
2022-09-07T03:04:40.774Z,12.63
2022-09-07T03:06:20.318Z,10.73
2022-09-07T03:08:01.150Z,15.75
2022-09-07T03:09:40.444Z,12.05
2022-09-07T03:11:14.383Z,12.27
2022-09-07T03:12:49.816Z,12.52
2022-09-07T03:14:24.986Z,11.15
2022-09-07T03:15:57.523Z,12.23
2022-09-07T03:17:33.469Z,11.43
2022-09-07T03:19:05.958Z,13.43
2022-09-07T03:20:40.488Z,13.52
2022-09-07T03:22:13.586Z,13.68
2022-09-07T03:23:51.169Z,15.85
2022-09-07T03:25:25.275Z,14.75
2022-09-07T03:26:58.957Z,14.25
2022-09-07T03:28:32.176Z,14.45
2022-09-07T03:31:39.093Z,13.52
2022-09-07T03:34:45.403Z,14.38
2022-09-07T03:36:19.902Z,14.23
2022-09-07T03:37:52.999Z,14.30
2022-09-07T03:39:27.304Z,14.70
2022-09-07T03:41:00.633Z,14.73
2022-09-07T03:44:07.333Z,13.15
2022-09-07T03:45:40.508Z,13.73
2022-09-07T03:48:48.145Z,17.85
2022-09-07T03:50:20.579Z,14.00
2022-09-07T03:51:54.946Z,14.40
2022-09-07T03:53:27.296Z,12.15
2022-09-07T03:55:00.332Z,18.15
2022-09-07T03:56:33.484Z,12.77
2022-09-07T03:58:06.551Z,12.38
2022-09-07T03:59:39.935Z,14.30
2022-09-07T04:01:15.836Z,13.10
2022-09-07T04:02:49.424Z,12.98
2022-09-07T04:05:59.742Z,17.58
2022-09-07T04:07:34.107Z,17.33
2022-09-07T04:09:08.807Z,17.42
2022-09-07T04:10:42.302Z,14.52
2022-09-07T04:12:15.260Z,15.70
2022-09-07T04:13:48.351Z,15.15
2022-09-07T04:15:21.307Z,15.98
2022-09-07T04:16:54.517Z,16.23
2022-09-07T04:20:00.509Z,17.17
2022-09-07T04:21:34.697Z,16.73
2022-09-07T04:23:09.069Z,17.02
2022-09-07T04:24:42.099Z,16.17
2022-09-07T04:26:16.022Z,17.17
2022-09-07T04:27:48.993Z,17.13
2022-09-07T04:29:22.127Z,19.13
2022-09-07T04:32:28.141Z,17.83
2022-09-07T04:34:01.361Z,15.65
2022-09-07T04:37:09.855Z,15.30
2022-09-07T04:38:43.622Z,18.13
2022-09-07T04:40:16.868Z,18.33
2022-09-07T04:43:22.019Z,17.58
2022-09-07T04:46:30.218Z,16.48
2022-09-07T04:48:03.896Z,17.02
2022-09-07T04:49:37.104Z,17.63
2022-09-07T04:51:10.825Z,16.73
2022-09-07T04:52:43.962Z,15.65
2022-09-07T04:54:18.479Z,17.88
2022-09-07T04:55:51.625Z,19.25
2022-09-07T04:57:26.525Z,17.30
2022-09-07T04:59:02.586Z,18.63
2022-09-07T05:00:35.560Z,16.05
2022-09-07T05:02:08.696Z,17.33
2022-09-07T05:03:42.503Z,16.92
2022-09-07T05:05:15.953Z,18.20
2022-09-07T05:06:49.082Z,18.42
2022-09-07T05:08:22.300Z,18.52
2022-09-07T05:11:30.355Z,18.10
2022-09-07T05:13:03.793Z,14.80
2022-09-07T05:14:36.892Z,16.15
2022-09-07T05:16:11.579Z,15.52
2022-09-07T05:17:44.777Z,16.85
2022-09-07T05:19:17.793Z,17.00
2022-09-07T05:20:51.053Z,15.88
2022-09-07T05:23:59.964Z,13.40
2022-09-07T05:25:34.413Z,17.23
2022-09-07T05:27:07.633Z,16.80
2022-09-07T05:32:08.279Z,12.50
2022-09-07T05:35:35.424Z,14.07
2022-09-07T05:37:08.539Z,14.38
2022-09-07T05:38:41.879Z,13.25
2022-09-07T05:40:15.461Z,12.73
2022-09-07T05:41:49.962Z,15.30
2022-09-07T05:43:23.352Z,15.57
2022-09-07T05:44:56.546Z,16.00
2022-09-07T05:48:03.112Z,12.38
2022-09-07T05:49:36.179Z,16.33
2022-09-07T05:51:09.874Z,15.18
2022-09-07T05:52:43.075Z,16.55
2022-09-07T05:55:50.694Z,15.38
2022-09-07T05:57:25.091Z,14.63
2022-09-07T05:58:58.246Z,15.05
2022-09-07T06:00:31.812Z,17.00
2022-09-07T06:02:05.702Z,14.35
2022-09-07T06:03:40.813Z,13.45
2022-09-07T06:05:14.375Z,14.90
2022-09-07T06:07:04.591Z,15.55
2022-09-07T06:08:45.902Z,14.05
2022-09-07T06:12:12.167Z,16.95
2022-09-07T06:15:19.620Z,15.80
2022-09-07T06:18:25.827Z,17.65
2022-09-07T06:21:31.924Z,14.95
2022-09-07T06:23:05.113Z,14.38
2022-09-07T06:26:11.996Z,14.93
2022-09-07T06:27:45.378Z,16.40
2022-09-07T06:29:19.821Z,16.35
2022-09-07T06:30:52.834Z,15.02
2022-09-07T06:34:19.183Z,15.80
2022-09-07T06:37:28.765Z,16.23
2022-09-07T06:39:02.556Z,15.65
2022-09-07T06:40:35.850Z,15.45
2022-09-07T06:42:11.380Z,14.77
2022-09-07T06:43:46.145Z,13.30
2022-09-07T06:45:20.621Z,13.90
2022-09-07T06:48:34.560Z,13.00
2022-09-07T06:50:08.629Z,14.50
2022-09-07T06:51:41.675Z,14.10
2022-09-07T06:55:09.119Z,14.38
2022-09-07T06:56:42.266Z,11.60
2022-09-07T06:59:48.464Z,12.13
2022-09-07T07:01:24.447Z,12.88
2022-09-07T07:02:57.550Z,16.65
2022-09-07T07:06:04.199Z,12.95
2022-09-07T07:07:37.358Z,13.52
2022-09-07T07:10:46.325Z,11.52
2022-09-07T07:13:51.046Z,15.02
2022-09-07T07:15:24.412Z,12.05
2022-09-07T07:16:58.774Z,13.63
2022-09-07T07:18:32.240Z,12.00
2022-09-07T07:20:06.664Z,13.18
2022-09-07T07:22:03.433Z,13.77
2022-09-07T07:23:34.266Z,10.77
2022-09-07T07:25:08.210Z,12.13
2022-09-07T07:26:44.491Z,11.50
2022-09-07T07:30:11.653Z,13.70
2022-09-07T07:31:44.901Z,13.77
2022-09-07T07:33:19.441Z,11.55
2022-09-07T07:34:52.431Z,11.27
2022-09-07T07:36:26.971Z,12.85
2022-09-07T07:41:53.850Z,12.33
2022-09-07T07:43:28.661Z,11.98
2022-09-07T07:46:54.892Z,15.80
2022-09-07T07:53:49.543Z,11.10
2022-09-07T07:57:16.986Z,11.30
2022-09-07T07:58:52.373Z,12.48
2022-09-07T08:00:43.821Z,13.38
2022-09-07T08:02:20.554Z,12.98
2022-09-07T08:03:55.205Z,12.35
2022-09-07T08:05:28.245Z,12.80
2022-09-07T08:07:05.569Z,11.70
2022-09-07T08:08:43.110Z,8.23
2022-09-07T08:10:16.239Z,11.65
2022-09-07T08:13:22.343Z,18.55
2022-09-07T08:16:28.730Z,12.07
2022-09-07T08:18:01.912Z,11.98
2022-09-07T08:22:43.394Z,12.50
2022-09-07T08:24:16.376Z,11.25
2022-09-07T08:25:54.219Z,12.85
2022-09-07T08:27:27.963Z,12.30
2022-09-07T08:29:00.916Z,11.55
2022-09-07T08:30:35.062Z,11.68
2022-09-07T08:32:08.164Z,9.52
2022-09-07T08:35:15.784Z,12.90
2022-09-07T08:36:49.315Z,12.07
2022-09-07T08:38:24.141Z,14.13
2022-09-07T08:39:57.264Z,13.18
2022-09-07T08:43:20.267Z,15.55
2022-09-07T08:45:02.457Z,13.50
2022-09-07T08:46:39.471Z,12.45
2022-09-07T08:48:16.846Z,12.85
2022-09-07T08:49:52.838Z,11.85
2022-09-07T08:51:37.814Z,10.57
2022-09-07T08:53:15.439Z,12.32
2022-09-07T08:54:59.035Z,11.82
2022-09-07T08:58:32.700Z,10.63
2022-09-07T09:00:14.347Z,10.43
2022-09-07T09:02:26.969Z,10.80
2022-09-07T09:05:45.582Z,11.18
2022-09-07T09:07:25.002Z,11.23
2022-09-07T09:09:17.966Z,9.88
2022-09-07T09:11:02.704Z,11.15
2022-09-07T09:12:57.334Z,10.93
2022-09-07T09:14:40.551Z,11.45
2022-09-07T09:16:19.292Z,10.80
2022-09-07T09:18:00.434Z,9.52
2022-09-07T09:19:51.221Z,8.77
2022-09-07T09:21:24.783Z,12.07
2022-09-07T09:23:03.403Z,11.27
2022-09-07T09:24:41.495Z,12.77
2022-09-07T09:26:19.291Z,12.75
2022-09-07T09:27:52.283Z,10.85
2022-09-07T09:29:25.451Z,15.32
2022-09-07T09:32:36.676Z,9.15
2022-09-07T09:34:12.509Z,11.90
2022-09-07T09:35:49.196Z,11.80
2022-09-07T09:37:34.889Z,13.00
2022-09-07T09:39:27.065Z,10.85
2022-09-07T09:41:04.784Z,10.55
2022-09-07T09:42:38.796Z,10.80
2022-09-07T09:44:17.119Z,9.32
2022-09-07T09:47:50.762Z,10.52
2022-09-07T09:49:26.278Z,9.82
2022-09-07T09:52:55.197Z,9.40
2022-09-07T09:54:33.955Z,9.65
2022-09-07T09:56:08.655Z,9.27
2022-09-07T10:00:02.658Z,9.88
2022-09-07T10:03:07.618Z,9.50
2022-09-07T10:05:29.495Z,10.05
2022-09-07T10:07:15.578Z,7.85
2022-09-07T10:08:57.361Z,7.85
2022-09-07T10:10:32.844Z,9.23
2022-09-07T10:12:08.237Z,9.43
2022-09-07T10:13:54.794Z,9.77
2022-09-07T10:15:40.144Z,7.53
2022-09-07T10:17:19.499Z,10.75
2022-09-07T10:18:57.013Z,8.57
2022-09-07T10:20:38.916Z,9.73
2022-09-07T10:22:33.797Z,11.48
2022-09-07T10:24:16.545Z,9.00
2022-09-07T10:25:51.123Z,10.32
2022-09-07T10:27:32.875Z,9.05
2022-09-07T10:29:28.657Z,9.80
2022-09-07T10:31:15.090Z,8.45
2022-09-07T10:33:00.150Z,8.65
2022-09-07T10:34:43.947Z,12.45
2022-09-07T10:36:22.184Z,12.68
2022-09-07T10:38:05.876Z,11.05
2022-09-07T10:39:42.654Z,11.43
2022-09-07T10:41:20.098Z,12.68
2022-09-07T10:45:05.020Z,11.75
2022-09-07T10:48:38.614Z,8.02
2022-09-07T10:50:22.512Z,12.90
2022-09-07T10:52:05.400Z,11.98
2022-09-07T10:56:04.534Z,8.85
2022-09-07T10:57:51.673Z,7.90
2022-09-07T11:01:38.665Z,10.45
2022-09-07T11:03:37.672Z,10.18
2022-09-07T11:05:19.151Z,13.02
2022-09-07T11:06:56.163Z,8.95
2022-09-07T11:10:47.178Z,9.07
2022-09-07T11:12:27.826Z,8.88
2022-09-07T11:14:13.612Z,8.75
2022-09-07T11:15:51.566Z,8.88
2022-09-07T11:17:28.505Z,12.55
2022-09-07T11:21:01.116Z,10.18
2022-09-07T11:22:38.802Z,12.20
2022-09-07T11:24:23.114Z,9.60
2022-09-07T11:26:04.859Z,10.18
2022-09-07T11:27:42.012Z,10.32
2022-09-07T11:29:35.695Z,10.07
2022-09-07T11:31:17.463Z,9.60
2022-09-07T11:33:00.494Z,8.73
2022-09-07T11:34:37.882Z,9.57
2022-09-07T11:36:16.245Z,10.43
2022-09-07T11:37:59.188Z,8.93
2022-09-07T11:39:37.050Z,9.27
2022-09-07T11:41:23.269Z,6.85
2022-09-07T11:43:03.811Z,8.30
2022-09-07T11:44:45.376Z,10.77
2022-09-07T11:46:24.902Z,10.48
2022-09-07T11:48:02.370Z,10.27
2022-09-07T11:49:35.287Z,10.75
2022-09-07T11:52:53.567Z,8.05
2022-09-07T11:54:35.138Z,10.35
2022-09-07T11:56:14.926Z,9.40
2022-09-07T11:58:06.696Z,7.80
2022-09-07T11:59:53.361Z,9.63
2022-09-07T12:01:35.909Z,8.93
2022-09-07T12:03:26.312Z,8.30
2022-09-07T12:05:21.129Z,10.73
2022-09-07T12:07:23.637Z,7.88
2022-09-07T12:09:12.952Z,9.43
2022-09-07T12:11:11.439Z,9.35
2022-09-07T12:13:03.475Z,12.10
2022-09-07T12:14:45.217Z,9.18
2022-09-07T12:16:24.120Z,11.30
2022-09-07T12:18:17.245Z,7.45
2022-09-07T12:20:15.529Z,9.95
2022-09-07T12:21:55.477Z,7.22
2022-09-07T12:23:31.042Z,9.35
2022-09-07T12:25:09.126Z,9.80
2022-09-07T12:26:51.514Z,6.90
2022-09-07T12:28:59.233Z,7.83
2022-09-07T12:31:01.362Z,9.43
2022-09-07T12:33:07.059Z,11.07
2022-09-07T12:35:01.801Z,9.55
2022-09-07T12:36:49.431Z,10.50
2022-09-07T12:38:59.146Z,7.53
2022-09-07T12:40:49.946Z,7.82
2022-09-07T12:42:33.129Z,7.07
2022-09-07T12:44:11.158Z,5.88
2022-09-07T12:45:52.740Z,8.85
2022-09-07T12:47:31.217Z,8.82
2022-09-07T12:49:17.593Z,9.02
2022-09-07T12:50:56.843Z,7.40
2022-09-07T12:52:49.075Z,7.25
2022-09-07T12:54:29.434Z,5.63
2022-09-07T12:56:24.459Z,8.05
2022-09-07T12:58:12.108Z,8.90
2022-09-07T12:59:57.279Z,9.35
2022-09-07T13:01:37.989Z,11.35
2022-09-07T13:03:53.019Z,10.32
2022-09-07T13:05:41.867Z,13.15
2022-09-07T13:07:38.877Z,10.90
2022-09-07T13:09:30.074Z,9.07
2022-09-07T13:11:18.079Z,7.10
2022-09-07T13:12:57.796Z,10.85
2022-09-07T13:14:34.504Z,8.05
2022-09-07T13:16:30.086Z,8.95
2022-09-07T13:18:03.728Z,8.23
2022-09-07T13:20:18.717Z,7.45
2022-09-07T13:21:51.669Z,9.85
2022-09-07T13:25:00.492Z,8.50
2022-09-07T13:26:53.234Z,6.78
2022-09-07T13:28:38.602Z,7.90
2022-09-07T13:30:44.704Z,9.77
2022-09-07T13:33:07.935Z,7.85
2022-09-07T13:34:43.049Z,7.75
2022-09-07T13:36:32.926Z,8.88
2022-09-07T13:38:06.318Z,6.70
2022-09-07T13:39:42.978Z,7.88
2022-09-07T13:41:19.707Z,6.80
2022-09-07T13:42:53.833Z,6.38
2022-09-07T13:44:33.055Z,8.57
2022-09-07T13:46:10.699Z,7.70
2022-09-07T13:47:54.314Z,7.75
2022-09-07T13:49:47.114Z,6.78
2022-09-07T13:51:25.857Z,8.43
2022-09-07T13:53:33.866Z,8.35
2022-09-07T13:55:25.987Z,8.23
2022-09-07T13:57:07.005Z,8.25
2022-09-07T13:58:42.980Z,9.80
2022-09-07T14:00:16.855Z,9.80
2022-09-07T14:01:51.382Z,9.70
2022-09-07T14:03:26.906Z,7.07
2022-09-07T14:05:01.711Z,8.13
2022-09-07T14:06:37.374Z,13.77
2022-09-07T14:08:25.795Z,7.95
2022-09-07T14:10:19.602Z,9.88
2022-09-07T14:11:54.301Z,10.63
2022-09-07T14:13:27.444Z,9.88
2022-09-07T14:15:18.142Z,8.52
2022-09-07T14:16:57.554Z,7.45
2022-09-07T14:18:32.844Z,7.28
2022-09-07T14:20:06.966Z,8.65
2022-09-07T14:21:41.597Z,9.18
2022-09-07T14:23:23.110Z,8.57
2022-09-07T14:24:57.535Z,8.02
2022-09-07T14:26:30.640Z,9.77
2022-09-07T14:28:03.786Z,6.15
2022-09-07T14:29:37.834Z,7.03
2022-09-07T14:31:14.383Z,7.07
2022-09-07T14:32:48.651Z,7.38
2022-09-07T14:34:25.750Z,8.15
2022-09-07T14:36:00.081Z,8.07
2022-09-07T14:37:34.698Z,7.13
2022-09-07T14:39:10.770Z,9.20
2022-09-07T14:40:44.241Z,10.82
2022-09-07T14:42:22.884Z,11.63
2022-09-07T14:43:57.723Z,10.68
2022-09-07T14:45:35.110Z,8.70
2022-09-07T14:47:21.108Z,7.30
2022-09-07T14:48:55.794Z,8.68
2022-09-07T14:50:39.156Z,7.85
2022-09-07T14:52:19.156Z,8.35
2022-09-07T14:53:56.217Z,7.85
2022-09-07T14:55:32.471Z,8.32
2022-09-07T14:57:24.446Z,7.55
2022-09-07T14:58:57.394Z,9.05
2022-09-07T15:02:25.013Z,8.15
2022-09-07T15:04:00.591Z,5.78
2022-09-07T15:05:34.432Z,9.00
2022-09-07T15:07:28.842Z,10.02
2022-09-07T15:09:04.361Z,9.00
2022-09-07T15:10:41.205Z,8.05
2022-09-07T15:12:27.145Z,6.20
2022-09-07T15:14:12.657Z,7.30
2022-09-07T15:15:56.439Z,12.18
2022-09-07T15:17:49.006Z,11.30
2022-09-07T15:19:32.491Z,8.45
2022-09-07T15:22:38.214Z,9.00
2022-09-07T15:25:51.194Z,12.90
2022-09-07T15:27:29.743Z,20.92
2022-09-07T15:29:11.386Z,7.85
2022-09-07T15:30:45.052Z,10.20
2022-09-07T15:32:18.825Z,7.97
2022-09-07T15:33:50.967Z,7.60
2022-09-07T15:35:24.172Z,8.20
2022-09-07T15:37:00.142Z,7.13
2022-09-07T15:40:20.368Z,9.02
2022-09-07T15:41:54.531Z,7.85
2022-09-07T15:43:28.508Z,8.18
2022-09-07T15:45:01.916Z,10.38
2022-09-07T15:46:37.103Z,8.82
2022-09-07T15:48:14.809Z,7.80
2022-09-07T15:49:51.385Z,10.10
2022-09-07T15:55:13.556Z,8.25
2022-09-07T15:58:43.555Z,9.55
2022-09-07T16:00:16.883Z,8.23
2022-09-07T16:01:53.380Z,7.30
2022-09-07T16:03:26.663Z,9.68
2022-09-07T16:04:59.753Z,9.50
2022-09-07T16:06:35.772Z,9.32
2022-09-07T16:10:04.439Z,8.02
2022-09-07T16:11:37.567Z,8.63
2022-09-07T16:13:16.679Z,8.40
2022-09-07T16:14:56.324Z,8.80
2022-09-07T16:18:23.767Z,13.68
2022-09-07T16:19:56.934Z,10.98
2022-09-07T16:21:29.879Z,9.55
2022-09-07T16:24:50.915Z,12.07
2022-09-07T16:27:58.052Z,12.52
2022-09-07T16:29:32.507Z,5.95
2022-09-07T16:31:08.742Z,6.43
2022-09-07T16:32:45.130Z,7.57
2022-09-07T16:34:21.153Z,7.18
2022-09-07T16:35:59.550Z,7.97
2022-09-07T16:37:32.961Z,7.60
2022-09-07T16:39:05.945Z,9.00
2022-09-07T16:42:15.054Z,9.40
2022-09-07T16:43:50.179Z,9.27
2022-09-07T16:47:17.666Z,11.38
2022-09-07T16:48:52.460Z,12.13
2022-09-07T16:50:25.388Z,11.52
2022-09-07T16:53:34.239Z,10.18
2022-09-07T16:55:07.438Z,8.50
2022-09-07T16:56:40.483Z,12.27
2022-09-07T17:00:07.522Z,9.45
2022-09-07T17:01:41.797Z,10.15
2022-09-07T17:03:14.950Z,7.65
2022-09-07T17:04:48.078Z,9.88
2022-09-07T17:06:23.701Z,11.32
2022-09-07T17:07:57.850Z,9.35
2022-09-07T17:09:30.908Z,8.73
2022-09-07T17:11:06.022Z,8.95
2022-09-07T17:12:39.135Z,6.97
2022-09-07T17:14:13.358Z,10.23
2022-09-07T17:15:46.273Z,6.03
2022-09-07T17:17:23.254Z,6.57
2022-09-07T17:22:29.547Z,8.35
2022-09-07T17:24:04.163Z,6.70
2022-09-07T17:25:37.861Z,9.68
2022-09-07T17:27:13.194Z,9.27
2022-09-07T17:28:49.966Z,10.85
2022-09-07T17:30:24.754Z,12.98
2022-09-07T17:33:58.590Z,9.15
2022-09-07T17:35:36.598Z,9.45
2022-09-07T17:37:10.364Z,9.43
2022-09-07T17:40:36.112Z,8.40
2022-09-07T17:42:09.851Z,9.05
2022-09-07T17:43:45.701Z,11.02
2022-09-07T17:45:18.945Z,9.45
2022-09-07T17:48:24.701Z,8.38
2022-09-07T17:49:59.016Z,10.80
2022-09-07T17:51:32.121Z,10.43
2022-09-07T17:54:37.789Z,9.85
2022-09-07T17:56:13.577Z,9.57
2022-09-07T17:57:46.441Z,9.43
2022-09-07T18:01:14.864Z,9.17
2022-09-07T18:02:47.859Z,13.13
2022-09-07T18:04:21.483Z,10.00
2022-09-07T18:05:56.488Z,10.75
2022-09-07T18:07:29.532Z,9.93
2022-09-07T18:12:29.110Z,11.45
2022-09-07T18:14:02.039Z,12.13
2022-09-07T18:15:39.893Z,9.38
2022-09-07T18:17:12.813Z,11.98
2022-09-07T18:18:46.737Z,11.73
2022-09-07T18:20:19.633Z,11.02
2022-09-07T18:21:53.998Z,11.68
2022-09-07T18:23:27.022Z,11.52
2022-09-07T18:26:33.797Z,12.45
2022-09-07T18:29:59.985Z,13.23
2022-09-07T18:33:05.836Z,13.67
2022-09-07T18:34:41.288Z,10.13
2022-09-07T18:36:15.281Z,8.18
2022-09-07T18:37:50.069Z,7.75
2022-09-07T18:39:23.077Z,11.30
2022-09-07T18:41:03.167Z,8.95
2022-09-07T18:42:36.324Z,8.98
2022-09-07T18:46:08.451Z,7.72
2022-09-07T18:47:43.511Z,7.18
2022-09-07T18:49:16.482Z,8.43
2022-09-07T18:50:54.570Z,7.75
2022-09-07T18:55:55.641Z,8.95
2022-09-07T18:57:28.581Z,9.07
2022-09-07T18:59:01.717Z,8.15
2022-09-07T19:00:34.713Z,7.93
2022-09-07T19:03:42.336Z,9.07
2022-09-07T19:07:08.500Z,7.87
2022-09-07T19:10:17.696Z,8.07
2022-09-07T19:11:50.998Z,6.75
2022-09-07T19:13:23.986Z,9.13
2022-09-07T19:14:56.958Z,9.25
2022-09-07T19:16:30.089Z,6.32
2022-09-07T19:18:04.562Z,6.95
2022-09-07T19:19:38.442Z,8.60
2022-09-07T19:21:17.048Z,6.25
2022-09-07T19:22:50.073Z,6.30
2022-09-07T19:24:23.106Z,7.95
2022-09-07T19:27:32.980Z,8.32
2022-09-07T19:29:10.264Z,11.27
2022-09-07T19:30:43.229Z,7.50
2022-09-07T19:32:17.046Z,7.40
2022-09-07T19:33:56.073Z,11.60
2022-09-07T19:35:30.104Z,8.90
2022-09-07T19:37:03.291Z,8.50
2022-09-07T19:38:36.713Z,7.05
2022-09-07T19:40:14.808Z,9.82
2022-09-07T19:41:52.855Z,10.82
2022-09-07T19:43:26.402Z,8.55
2022-09-07T19:44:59.688Z,7.22
2022-09-07T19:46:33.114Z,8.45
2022-09-07T19:48:06.561Z,9.35
2022-09-07T19:49:39.812Z,6.97
2022-09-07T19:51:15.490Z,8.75
2022-09-07T19:52:48.721Z,10.18
2022-09-07T19:54:21.685Z,9.68
2022-09-07T19:56:02.707Z,10.35
2022-09-07T19:57:36.987Z,10.82
2022-09-07T19:59:10.618Z,8.25
2022-09-07T20:00:43.587Z,10.60
2022-09-07T20:02:16.589Z,9.55
2022-09-07T20:03:57.410Z,8.18
2022-09-07T20:05:31.193Z,9.75
2022-09-07T20:07:04.224Z,7.85
2022-09-07T20:08:37.930Z,11.85
2022-09-07T20:10:11.952Z,7.93
2022-09-07T20:11:46.880Z,8.95
2022-09-07T20:13:21.884Z,7.20
2022-09-07T20:14:55.027Z,8.38
2022-09-07T20:16:30.171Z,9.70
2022-09-07T20:18:03.420Z,9.75
2022-09-07T20:21:11.505Z,8.97
2022-09-07T20:22:44.479Z,8.27
2022-09-07T20:24:24.650Z,12.38
2022-09-07T20:25:58.284Z,8.15
2022-09-07T20:27:32.143Z,7.75
2022-09-07T20:29:26.145Z,10.57
2022-09-07T20:30:59.427Z,9.52
2022-09-07T20:32:32.547Z,8.30
2022-09-07T20:35:38.623Z,9.50
2022-09-07T20:37:11.688Z,9.25
2022-09-07T20:40:55.127Z,8.02
2022-09-07T20:42:28.124Z,8.80
2022-09-07T20:44:02.905Z,9.75
2022-09-07T20:45:37.693Z,9.48
2022-09-07T20:47:10.719Z,8.65
2022-09-07T20:50:16.878Z,8.27
2022-09-07T20:51:49.785Z,11.15
2022-09-07T20:53:22.806Z,9.05
2022-09-07T20:56:30.022Z,9.20
2022-09-07T20:58:03.241Z,7.93
2022-09-07T20:59:36.259Z,8.15
2022-09-07T21:01:10.836Z,7.97
2022-09-07T21:02:43.900Z,10.45
2022-09-07T21:04:16.878Z,10.88
2022-09-07T21:05:49.949Z,9.82
2022-09-07T21:08:57.133Z,11.02
2022-09-07T21:10:30.352Z,9.75
2022-09-07T21:12:03.658Z,10.05
2022-09-07T21:13:36.720Z,13.00
2022-09-07T21:16:44.440Z,10.07
2022-09-07T21:18:18.915Z,11.23
2022-09-07T21:19:51.970Z,11.52
2022-09-07T21:21:26.602Z,9.48
2022-09-07T21:22:59.591Z,10.82
2022-09-07T21:24:32.901Z,9.73
2022-09-07T21:26:05.633Z,9.07
2022-09-07T21:27:38.932Z,9.52
2022-09-07T21:29:16.735Z,10.52
2022-09-07T21:30:57.248Z,9.30
2022-09-07T21:32:31.610Z,10.20
2022-09-07T21:34:04.583Z,9.48
2022-09-07T21:35:37.667Z,9.98
2022-09-07T21:38:43.358Z,11.23
2022-09-07T21:41:54.073Z,10.68
2022-09-07T21:45:00.374Z,14.63
2022-09-07T21:46:34.614Z,9.77
2022-09-07T21:48:08.996Z,12.88
2022-09-07T21:49:44.484Z,10.27
2022-09-07T21:51:18.394Z,9.77
2022-09-07T21:52:51.499Z,9.23
2022-09-07T21:55:56.439Z,8.57
2022-09-07T21:57:29.366Z,9.63
2022-09-07T21:59:03.057Z,8.60
2022-09-07T22:00:38.592Z,11.25
2022-09-07T22:02:11.710Z,9.32
2022-09-07T22:05:19.347Z,10.65
2022-09-07T22:06:52.294Z,9.88
2022-09-07T22:08:25.216Z,9.18
2022-09-07T22:09:58.278Z,8.45
2022-09-07T22:13:04.886Z,9.35
2022-09-07T22:16:10.544Z,9.30
2022-09-07T22:17:46.302Z,9.70
2022-09-07T22:19:20.986Z,9.82
2022-09-07T22:21:02.355Z,8.57
2022-09-07T22:22:35.947Z,9.77
2022-09-07T22:24:09.867Z,8.95
2022-09-07T22:25:52.867Z,8.25
2022-09-07T22:27:25.920Z,7.47
2022-09-07T22:28:59.729Z,9.27
2022-09-07T22:30:32.954Z,9.73
2022-09-07T22:33:38.074Z,8.85
2022-09-07T22:35:12.524Z,9.38
2022-09-07T22:36:46.486Z,10.57
2022-09-07T22:38:19.445Z,9.32
2022-09-07T22:39:52.555Z,10.10
2022-09-07T22:43:00.032Z,9.38
2022-09-07T22:44:32.909Z,8.32
2022-09-07T22:46:05.335Z,9.15
2022-09-07T22:47:38.260Z,14.80
2022-09-07T22:49:11.642Z,8.88
2022-09-07T22:50:45.870Z,11.25
2022-09-07T22:52:18.797Z,12.20
2022-09-07T22:53:52.103Z,13.68
2022-09-07T22:55:25.018Z,10.00
2022-09-07T22:56:57.886Z,9.98
2022-09-07T22:58:30.205Z,10.65
2022-09-07T23:00:03.697Z,13.05
2022-09-07T23:01:37.659Z,9.88
2022-09-07T23:03:10.771Z,9.05
2022-09-07T23:06:23.626Z,8.77
2022-09-07T23:07:56.528Z,7.93
2022-09-07T23:09:29.727Z,10.27
2022-09-07T23:11:06.485Z,7.38
2022-09-07T23:12:40.383Z,9.25
2022-09-07T23:14:15.122Z,8.38
2022-09-07T23:15:48.228Z,8.18
2022-09-07T23:18:54.282Z,11.75
2022-09-07T23:22:04.671Z,9.18
2022-09-07T23:23:37.017Z,10.02
2022-09-07T23:25:10.502Z,8.20
2022-09-07T23:26:42.996Z,8.07
2022-09-07T23:28:16.084Z,9.02
2022-09-07T23:31:22.220Z,9.25
2022-09-07T23:32:55.603Z,9.98
2022-09-07T23:34:28.603Z,8.48
2022-09-07T23:36:02.237Z,11.68
2022-09-07T23:37:36.502Z,12.15
2022-09-07T23:39:09.760Z,8.18
2022-09-07T23:40:42.257Z,10.60
2022-09-07T23:42:15.224Z,9.60
2022-09-07T23:43:48.464Z,10.27
2022-09-07T23:45:20.444Z,10.32
2022-09-07T23:46:53.379Z,10.60
2022-09-07T23:48:26.094Z,12.45
2022-09-07T23:49:59.062Z,10.52
2022-09-07T23:51:32.269Z,10.27
2022-09-07T23:53:05.695Z,10.23
2022-09-07T23:54:39.021Z,10.05
2022-09-07T23:56:12.247Z,9.23
2022-09-07T23:59:18.312Z,10.77
